Arnoldsville, Georgia
Current Conditions -  °F | °C
As of 12:51 AM on Sunday 26 Oct 2014 (Local Time) from KAHN Reporting Station
Clear Clear  
Wind Chill: 57°   Ceiling: Unl
Heat Index: 57°   Visibility: 10mi
Dew Point: 51°   Wind: 3mph
Humidity: 81%   Direction: 290°WNW
Pressure: 29.99"   Gusts: NA
Location:  33.91°N, 83.22°W
Report Text: KAHN 260451Z AUTO 29003KT 10SM CLR 14/11 A2999 RMK AO2 SLP152 T01390106 402440067
Loading
Personal Weather Stations






























Interactive Weather Map
Tropical Storm Tracking
New forecast layout! Learn more

10-Day Weather Forecast

Advertisements
Track Severe Weather on mobile